createdAt,value
2018-03-22T00:02:03.688Z,101518.48
2018-03-22T00:04:32.000Z,101520.25
2018-03-22T00:07:00.376Z,101515.42
2018-03-22T00:09:29.070Z,101515.57
2018-03-22T00:11:58.039Z,101513.94
2018-03-22T00:14:27.364Z,101513.14
2018-03-22T00:16:56.530Z,101508.40
2018-03-22T00:19:24.884Z,101508.42
2018-03-22T00:21:54.018Z,101505.35
2018-03-22T00:24:22.322Z,101497.53
2018-03-22T00:26:50.653Z,101497.06
2018-03-22T00:29:19.020Z,101485.78
2018-03-22T00:31:48.103Z,101489.80
2018-03-22T00:34:16.436Z,101484.16
2018-03-22T00:36:44.773Z,101479.94
2018-03-22T00:39:13.185Z,101477.33
2018-03-22T00:41:41.515Z,101475.34
2018-03-22T00:44:10.631Z,101468.52
2018-03-22T00:46:38.943Z,101464.69
2018-03-22T00:49:07.289Z,101458.09
2018-03-22T00:51:35.637Z,101455.59
2018-03-22T00:54:03.937Z,101445.95
2018-03-22T00:56:32.251Z,101450.72
2018-03-22T00:59:01.907Z,101450.47
2018-03-22T01:01:31.103Z,101438.45
2018-03-22T01:04:00.878Z,101431.89
2018-03-22T01:06:29.232Z,101430.06
2018-03-22T01:08:57.564Z,101419.64
2018-03-22T01:11:26.639Z,101420.92
2018-03-22T01:13:54.998Z,101408.59
2018-03-22T01:16:23.308Z,101407.47
2018-03-22T01:18:52.391Z,101401.90
2018-03-22T01:21:20.748Z,101394.00
2018-03-22T01:23:49.102Z,101394.89
2018-03-22T01:26:17.437Z,101386.63
2018-03-22T01:28:46.551Z,101388.00
2018-03-22T01:31:15.671Z,101381.23
2018-03-22T01:33:44.390Z,101377.64
2018-03-22T01:36:12.698Z,101374.45
2018-03-22T01:38:41.854Z,101374.02
2018-03-22T01:41:10.143Z,101365.19
2018-03-22T01:43:38.850Z,101362.11
2018-03-22T01:46:08.782Z,101360.81
2018-03-22T01:48:37.401Z,101356.48
2018-03-22T01:51:05.805Z,101357.38
2018-03-22T01:53:34.116Z,101349.86
2018-03-22T01:56:03.233Z,101353.73
2018-03-22T01:58:31.574Z,101345.89
2018-03-22T02:00:59.923Z,101337.41
2018-03-22T02:03:28.216Z,101332.36
2018-03-22T02:05:56.538Z,101332.48
2018-03-22T02:08:24.878Z,101333.48
2018-03-22T02:10:53.210Z,101316.69
2018-03-22T02:13:21.531Z,101323.72
2018-03-22T02:15:49.859Z,101313.86
2018-03-22T02:18:18.858Z,101308.97
2018-03-22T02:20:47.208Z,101303.40
2018-03-22T02:23:15.638Z,101301.05
2018-03-22T02:25:44.703Z,101297.56
2018-03-22T02:28:14.008Z,101298.02
2018-03-22T02:30:42.406Z,101292.64
2018-03-22T02:33:11.975Z,101288.63
2018-03-22T02:35:40.291Z,101281.53
2018-03-22T02:38:08.650Z,101282.03
2018-03-22T02:40:36.972Z,101274.95
2018-03-22T02:43:06.087Z,101272.30
2018-03-22T02:45:35.206Z,101269.96
2018-03-22T02:48:03.541Z,101272.17
2018-03-22T02:50:32.684Z,101266.15
2018-03-22T02:53:01.009Z,101256.31
2018-03-22T02:55:30.112Z,101249.84
2018-03-22T02:57:59.205Z,101249.51
2018-03-22T03:00:28.370Z,101246.58
2018-03-22T03:02:56.648Z,101245.92
2018-03-22T03:05:24.976Z,101239.17
2018-03-22T03:07:53.314Z,101232.25
2018-03-22T03:10:22.116Z,101231.06
2018-03-22T03:12:50.630Z,101224.31
2018-03-22T03:15:19.028Z,101220.99
2018-03-22T03:17:47.338Z,101219.83
2018-03-22T03:20:15.692Z,101218.94
2018-03-22T03:22:43.998Z,101205.05
2018-03-22T03:25:12.311Z,101200.23
2018-03-22T03:27:40.671Z,101188.92
2018-03-22T03:30:09.779Z,101180.29
2018-03-22T03:32:38.158Z,101177.62
2018-03-22T03:35:06.464Z,101175.94
2018-03-22T03:37:34.814Z,101176.09
2018-03-22T03:40:03.162Z,101167.20
2018-03-22T03:42:31.512Z,101165.17
2018-03-22T03:44:59.832Z,101167.46
2018-03-22T03:47:29.038Z,101163.34
2018-03-22T03:49:58.598Z,101155.30
2018-03-22T03:52:27.161Z,101147.17
2018-03-22T03:54:55.531Z,101142.06
2018-03-22T03:57:23.855Z,101140.47
2018-03-22T03:59:52.225Z,101140.12
2018-03-22T04:02:20.550Z,101138.95
2018-03-22T04:04:48.917Z,101141.42
2018-03-22T04:07:17.995Z,101134.03
2018-03-22T04:09:47.468Z,101128.02
2018-03-22T04:12:15.832Z,101121.09
2018-03-22T04:14:44.202Z,101115.61
2018-03-22T04:17:12.509Z,101109.27
2018-03-22T04:19:40.835Z,101108.05
2018-03-22T04:22:09.568Z,101102.50
2018-03-22T04:24:38.643Z,101103.89
2018-03-22T04:27:06.977Z,101100.06
2018-03-22T04:29:36.105Z,101097.11
2018-03-22T04:32:04.823Z,101098.96
2018-03-22T04:34:33.898Z,101093.94
2018-03-22T04:37:03.336Z,101088.42
2018-03-22T04:39:31.646Z,101079.45
2018-03-22T04:41:59.989Z,101068.77
2018-03-22T04:44:28.329Z,101062.52
2018-03-22T04:46:57.789Z,101063.36
2018-03-22T04:49:26.915Z,101058.16
2018-03-22T04:51:55.290Z,101058.72
2018-03-22T04:54:24.335Z,101049.67
2018-03-22T04:56:52.679Z,101047.09
2018-03-22T04:59:21.024Z,101048.48
2018-03-22T05:01:50.125Z,101044.66
2018-03-22T05:04:18.468Z,101042.61
2018-03-22T05:06:46.778Z,101038.08
2018-03-22T05:09:15.110Z,101032.93
2018-03-22T05:11:43.444Z,101034.61
2018-03-22T05:14:12.708Z,101027.77
2018-03-22T05:16:41.042Z,101027.76
2018-03-22T05:19:09.374Z,101020.36
2018-03-22T05:21:38.763Z,101023.04
2018-03-22T05:24:07.827Z,101018.89
2018-03-22T05:26:36.159Z,101022.66
2018-03-22T05:29:04.464Z,101015.81
2018-03-22T05:31:32.820Z,101018.02
2018-03-22T05:34:01.188Z,101016.78
2018-03-22T05:36:29.600Z,101007.83
2018-03-22T05:38:57.956Z,101005.18
2018-03-22T05:41:26.285Z,100999.66
2018-03-22T05:43:54.641Z,100997.56
2018-03-22T05:46:22.945Z,100994.55
2018-03-22T05:48:51.264Z,100990.20
2018-03-22T05:51:19.615Z,100990.53
2018-03-22T05:53:48.753Z,100988.12
2018-03-22T05:56:18.028Z,100988.70
2018-03-22T05:58:46.389Z,100979.55
2018-03-22T06:01:14.730Z,100971.33
2018-03-22T06:03:43.060Z,100973.28
2018-03-22T06:06:11.480Z,100972.25
2018-03-22T06:08:39.801Z,100957.16
2018-03-22T06:11:08.172Z,100954.88
2018-03-22T06:13:37.279Z,100951.60
2018-03-22T06:16:05.733Z,100942.37
2018-03-22T06:18:34.062Z,100940.09
2018-03-22T06:21:02.392Z,100930.31
2018-03-22T06:23:30.728Z,100934.47
2018-03-22T06:25:59.128Z,100924.86
2018-03-22T06:28:27.440Z,100924.02
2018-03-22T06:30:56.520Z,100917.33
2018-03-22T06:33:24.875Z,100910.11
2018-03-22T06:35:53.332Z,100902.02
2018-03-22T06:38:21.769Z,100897.19
2018-03-22T06:40:50.873Z,100887.39
2018-03-22T06:43:19.962Z,100883.63
2018-03-22T06:45:49.064Z,100884.13
2018-03-22T06:48:17.379Z,100874.08
2018-03-22T06:50:45.720Z,100862.09
2018-03-22T06:53:14.802Z,100868.11
2018-03-22T06:55:43.142Z,100861.05
2018-03-22T06:58:11.480Z,100860.29
2018-03-22T07:00:39.846Z,100853.25
2018-03-22T07:03:08.219Z,100861.98
2018-03-22T07:05:38.658Z,100868.05
2018-03-22T07:08:07.000Z,100875.00
2018-03-22T07:10:35.301Z,100875.73
2018-03-22T07:13:04.399Z,100868.63
2018-03-22T07:15:32.760Z,100868.54
2018-03-22T07:18:01.272Z,100870.29
2018-03-22T07:20:29.586Z,100866.68
2018-03-22T07:22:57.947Z,100862.89
2018-03-22T07:25:27.117Z,100856.69
2018-03-22T07:27:55.386Z,100854.09
2018-03-22T07:30:23.738Z,100845.46
2018-03-22T07:32:52.096Z,100850.80
2018-03-22T07:35:20.443Z,100842.11
2018-03-22T07:37:48.793Z,100840.78
2018-03-22T07:40:17.973Z,100839.41
2018-03-22T07:42:51.707Z,100836.70
2018-03-22T07:45:20.035Z,100841.23
2018-03-22T07:47:48.334Z,100831.42
2018-03-22T07:50:16.759Z,100831.84
2018-03-22T07:52:45.075Z,100828.91
2018-03-22T07:55:13.419Z,100832.03
2018-03-22T07:57:41.774Z,100834.58
2018-03-22T08:00:10.166Z,100824.64
2018-03-22T08:02:38.877Z,100824.06
2018-03-22T08:05:07.300Z,100817.54
2018-03-22T08:07:36.388Z,100819.36
2018-03-22T08:10:04.707Z,100812.80
2018-03-22T08:12:33.063Z,100805.75
2018-03-22T08:15:01.407Z,100807.11
2018-03-22T08:17:29.713Z,100800.70
2018-03-22T08:19:58.067Z,100792.50
2018-03-22T08:22:27.156Z,100779.90
2018-03-22T08:24:55.539Z,100781.68
2018-03-22T08:27:24.634Z,100779.50
2018-03-22T08:29:53.753Z,100772.89
2018-03-22T08:32:22.091Z,100767.66
2018-03-22T08:34:50.433Z,100760.22
2018-03-22T08:37:18.774Z,100760.22
2018-03-22T08:39:47.904Z,100761.55
2018-03-22T08:42:16.265Z,100763.27
2018-03-22T08:44:44.611Z,100753.22
2018-03-22T08:47:13.757Z,100745.77
2018-03-22T08:49:42.188Z,100733.95
2018-03-22T08:52:11.301Z,100731.31
2018-03-22T08:54:39.633Z,100725.91
2018-03-22T08:57:07.951Z,100709.69
2018-03-22T08:59:37.066Z,100707.63
2018-03-22T09:02:05.390Z,100700.72
2018-03-22T09:04:33.733Z,100707.06
2018-03-22T09:07:02.071Z,100708.34
2018-03-22T09:09:31.222Z,100702.36
2018-03-22T09:11:59.592Z,100703.32
2018-03-22T09:14:27.890Z,100695.84
2018-03-22T09:16:56.239Z,100693.59
2018-03-22T09:19:25.333Z,100689.48
2018-03-22T09:21:54.084Z,100679.88
2018-03-22T09:24:23.162Z,100675.66
2018-03-22T09:26:57.105Z,100675.21
2018-03-22T09:29:25.493Z,100676.77
2018-03-22T09:31:53.745Z,100666.69
2018-03-22T09:34:22.874Z,100666.83
2018-03-22T09:36:51.237Z,100668.61
2018-03-22T09:39:19.623Z,100671.29
2018-03-22T09:41:48.030Z,100666.91
2018-03-22T09:44:16.347Z,100667.81
2018-03-22T09:46:45.452Z,100659.52
2018-03-22T09:49:13.777Z,100658.64
2018-03-22T09:51:42.098Z,100659.88
2018-03-22T09:54:11.166Z,100655.94
2018-03-22T09:56:39.938Z,100652.51
2018-03-22T09:59:08.330Z,100645.51
2018-03-22T10:01:36.652Z,100642.33
2018-03-22T10:04:04.991Z,100646.30
2018-03-22T10:06:33.356Z,100645.92
2018-03-22T10:09:01.682Z,100635.93
2018-03-22T10:11:30.046Z,100637.22
2018-03-22T10:13:59.150Z,100644.20
2018-03-22T10:16:28.640Z,100634.58
2018-03-22T10:18:57.070Z,100628.42
2018-03-22T10:21:25.404Z,100628.73
2018-03-22T10:23:54.480Z,100627.73
2018-03-22T10:26:22.843Z,100627.45
2018-03-22T10:28:51.194Z,100624.81
2018-03-22T10:31:19.510Z,100608.04
2018-03-22T10:33:48.258Z,100618.20
2018-03-22T10:36:16.836Z,100614.23
2018-03-22T10:38:45.182Z,100611.66
2018-03-22T10:41:14.273Z,100603.39
2018-03-22T10:43:43.394Z,100615.27
2018-03-22T10:46:11.732Z,100600.89
2018-03-22T10:48:40.055Z,100582.40
2018-03-22T10:51:08.423Z,100579.62
2018-03-22T10:53:36.744Z,100575.77
2018-03-22T10:56:05.078Z,100573.92
2018-03-22T10:58:33.590Z,100573.01
2018-03-22T11:01:07.458Z,100567.83
2018-03-22T11:03:41.450Z,100572.77
2018-03-22T11:06:10.536Z,100564.45
2018-03-22T11:08:38.990Z,100563.53
2018-03-22T11:11:07.737Z,100559.90
2018-03-22T11:13:36.922Z,100555.53
2018-03-22T11:16:05.291Z,100551.02
2018-03-22T11:18:33.616Z,100563.25
2018-03-22T11:21:01.982Z,100553.21
2018-03-22T11:23:31.118Z,100547.52
2018-03-22T11:25:59.482Z,100544.02
2018-03-22T11:28:27.807Z,100538.09
2018-03-22T11:30:56.161Z,100530.68
2018-03-22T11:33:25.318Z,100533.31
2018-03-22T11:35:53.650Z,100539.05
2018-03-22T11:38:21.988Z,100530.00
2018-03-22T11:40:50.394Z,100534.38
2018-03-22T11:43:19.527Z,100524.74
2018-03-22T11:45:47.850Z,100526.95
2018-03-22T11:48:16.225Z,100529.13
2018-03-22T11:50:44.597Z,100524.79
2018-03-22T11:53:12.933Z,100529.18
2018-03-22T11:55:41.286Z,100525.66
2018-03-22T11:58:10.420Z,100519.94
2018-03-22T12:00:38.770Z,100510.73
2018-03-22T12:03:07.126Z,100520.86
2018-03-22T12:05:35.450Z,100510.82
2018-03-22T12:08:03.810Z,100510.39
2018-03-22T12:10:32.169Z,100512.56
2018-03-22T12:13:01.372Z,100516.41
2018-03-22T12:15:29.734Z,100509.91
2018-03-22T12:17:58.821Z,100495.08
2018-03-22T12:20:27.165Z,100495.92
2018-03-22T12:22:55.482Z,100490.28
2018-03-22T12:25:24.606Z,100492.89
2018-03-22T12:27:52.968Z,100486.77
2018-03-22T12:30:22.098Z,100489.80
2018-03-22T12:32:50.514Z,100483.23
2018-03-22T12:35:18.870Z,100489.81
2018-03-22T12:37:47.237Z,100483.27
2018-03-22T12:40:15.551Z,100484.14
2018-03-22T12:42:43.894Z,100478.45
2018-03-22T12:45:12.213Z,100461.42
2018-03-22T12:47:40.577Z,100466.66
2018-03-22T12:50:08.912Z,100461.37
2018-03-22T12:52:37.275Z,100462.28
2018-03-22T12:55:05.603Z,100466.65
2018-03-22T12:57:33.929Z,100463.61
2018-03-22T13:00:02.309Z,100454.85
2018-03-22T13:02:31.391Z,100449.17
2018-03-22T13:05:00.515Z,100452.69
2018-03-22T13:07:28.984Z,100457.48
2018-03-22T13:09:57.369Z,100455.31
2018-03-22T13:12:25.715Z,100453.55
2018-03-22T13:14:54.837Z,100454.44
2018-03-22T13:17:23.201Z,100455.31
2018-03-22T13:19:51.946Z,100451.38
2018-03-22T13:22:20.305Z,100449.17
2018-03-22T13:24:49.406Z,100450.05
2018-03-22T13:27:17.747Z,100447.88
2018-03-22T13:29:46.073Z,100443.92
2018-03-22T13:32:14.433Z,100445.67
2018-03-22T13:34:42.787Z,100441.32
2018-03-22T13:37:12.032Z,100439.09
2018-03-22T13:39:40.413Z,100436.52
2018-03-22T13:42:08.727Z,100434.30
2018-03-22T13:44:37.064Z,100440.87
2018-03-22T13:47:05.389Z,100437.37
2018-03-22T13:49:33.813Z,100431.72
2018-03-22T13:52:02.299Z,100429.97
2018-03-22T13:54:30.674Z,100437.39
2018-03-22T13:56:59.804Z,100427.77
2018-03-22T13:59:28.153Z,100423.84
2018-03-22T14:01:56.750Z,100420.78
2018-03-22T14:04:25.085Z,100417.71
2018-03-22T14:06:53.456Z,100421.65
2018-03-22T14:09:21.827Z,100418.17
2018-03-22T14:11:50.158Z,100422.98
2018-03-22T14:14:18.528Z,100413.80
2018-03-22T14:16:46.856Z,100406.36
2018-03-22T14:19:15.224Z,100405.50
2018-03-22T14:21:43.594Z,100401.56
2018-03-22T14:24:12.314Z,100396.31
2018-03-22T14:26:40.666Z,100395.89
2018-03-22T14:29:09.642Z,100393.24
2018-03-22T14:31:38.208Z,100386.70
2018-03-22T14:34:06.577Z,100383.20
2018-03-22T14:36:34.890Z,100386.67
2018-03-22T14:39:03.306Z,100379.27
2018-03-22T14:41:31.643Z,100386.27
2018-03-22T14:44:00.769Z,100386.67
2018-03-22T14:46:29.086Z,100378.38
2018-03-22T14:48:57.497Z,100383.61
2018-03-22T14:51:25.849Z,100377.06
2018-03-22T14:53:54.222Z,100380.11
2018-03-22T14:56:22.543Z,100382.22
2018-03-22T14:58:50.872Z,100381.36
2018-03-22T15:01:20.047Z,100371.75
2018-03-22T15:03:48.387Z,100373.91
2018-03-22T15:06:16.768Z,100364.76
2018-03-22T15:08:45.769Z,100369.14
2018-03-22T15:11:14.128Z,100366.89
2018-03-22T15:13:43.758Z,100365.61
2018-03-22T15:16:12.099Z,100370.44
2018-03-22T15:18:41.219Z,100374.35
2018-03-22T15:21:09.567Z,100364.33
2018-03-22T15:23:38.658Z,100364.25
2018-03-22T15:26:07.146Z,100368.61
2018-03-22T15:28:36.285Z,100355.05
2018-03-22T15:31:04.686Z,100364.25
2018-03-22T15:33:33.079Z,100365.16
2018-03-22T15:36:01.472Z,100362.53
2018-03-22T15:38:30.587Z,100364.25
2018-03-22T15:40:59.748Z,100362.91
2018-03-22T15:43:28.174Z,100364.20
2018-03-22T15:45:56.556Z,100370.27
2018-03-22T15:48:24.908Z,100367.17
2018-03-22T15:50:54.039Z,100375.96
2018-03-22T15:53:22.513Z,100367.66
2018-03-22T15:55:51.653Z,100373.31
2018-03-22T15:58:20.806Z,100378.09
2018-03-22T16:00:49.167Z,100372.37
2018-03-22T16:03:17.539Z,100374.12
2018-03-22T16:05:46.636Z,100373.28
2018-03-22T16:08:16.524Z,100378.09
2018-03-22T16:10:45.520Z,100378.98
2018-03-22T16:13:13.834Z,100375.03
2018-03-22T16:15:42.194Z,100367.16
2018-03-22T16:18:10.546Z,100374.97
2018-03-22T16:20:38.894Z,100372.37
2018-03-22T16:23:07.257Z,100375.42
2018-03-22T16:25:35.623Z,100367.99
2018-03-22T16:28:03.956Z,100372.39
2018-03-22T16:30:32.303Z,100375.00
2018-03-22T16:33:00.645Z,100371.06
2018-03-22T16:35:29.229Z,100371.05
2018-03-22T16:37:57.593Z,100367.14
2018-03-22T16:40:26.664Z,100367.53
2018-03-22T16:42:55.060Z,100370.56
2018-03-22T16:45:24.155Z,100365.33
2018-03-22T16:47:53.280Z,100363.17
2018-03-22T16:50:21.620Z,100365.30
2018-03-22T16:52:49.970Z,100366.63
2018-03-22T16:55:18.311Z,100364.45
2018-03-22T16:57:46.688Z,100368.36
2018-03-22T17:00:15.187Z,100361.38
2018-03-22T17:02:43.578Z,100364.38
2018-03-22T17:05:11.963Z,100354.36
2018-03-22T17:07:41.254Z,100349.58
2018-03-22T17:10:10.573Z,100353.98
2018-03-22T17:12:38.947Z,100353.95
2018-03-22T17:15:07.407Z,100351.80
2018-03-22T17:17:37.637Z,100360.11
2018-03-22T17:20:06.740Z,100351.81
2018-03-22T17:22:35.062Z,100349.15
2018-03-22T17:25:04.548Z,100353.97
2018-03-22T17:27:32.888Z,100352.63
2018-03-22T17:30:01.523Z,100349.61
2018-03-22T17:32:30.641Z,100351.34
2018-03-22T17:34:59.077Z,100342.59
2018-03-22T17:37:27.421Z,100343.05
2018-03-22T17:39:57.014Z,100343.95
2018-03-22T17:42:25.438Z,100344.38
2018-03-22T17:44:53.833Z,100341.77
2018-03-22T17:47:23.787Z,100344.81
2018-03-22T17:49:53.916Z,100344.84
2018-03-22T17:52:22.330Z,100335.20
2018-03-22T17:54:50.814Z,100329.03
2018-03-22T17:57:19.664Z,100342.64
2018-03-22T17:59:49.839Z,100344.39
2018-03-22T18:02:19.650Z,100340.91
2018-03-22T18:04:48.881Z,100345.28
2018-03-22T18:07:27.268Z,100340.50
2018-03-22T18:09:56.546Z,100345.69
2018-03-22T18:12:25.035Z,100341.77
2018-03-22T18:14:55.264Z,100340.45
2018-03-22T18:17:25.631Z,100338.28
2018-03-22T18:19:59.242Z,100308.59
2018-03-22T18:22:29.014Z,100349.19
2018-03-22T18:24:57.841Z,100346.14
2018-03-22T18:27:28.637Z,100330.39
2018-03-22T18:29:58.515Z,100332.14
2018-03-22T18:32:30.172Z,100346.62
2018-03-22T18:35:01.707Z,100348.78
2018-03-22T18:37:38.983Z,100347.95
2018-03-22T18:40:16.253Z,100348.84
2018-03-22T18:42:49.262Z,100350.58
2018-03-22T18:45:18.849Z,100354.94
2018-03-22T18:47:47.278Z,100350.58
2018-03-22T18:50:16.895Z,100353.61
2018-03-22T18:52:46.026Z,100356.23
2018-03-22T18:55:14.412Z,100355.33
2018-03-22T18:57:44.437Z,100351.45
2018-03-22T19:00:13.662Z,100348.86
2018-03-22T19:02:42.162Z,100348.41
2018-03-22T19:05:11.376Z,100346.66
2018-03-22T19:07:41.818Z,100341.39
2018-03-22T19:13:07.647Z,100338.80
2018-03-22T19:15:39.135Z,100340.58
2018-03-22T19:18:07.592Z,100347.12
2018-03-22T19:20:36.012Z,100343.23
2018-03-22T19:23:06.014Z,100278.13
2018-03-22T19:25:35.211Z,100340.62
2018-03-22T19:28:09.395Z,100331.86
2018-03-22T19:30:37.903Z,100334.05
2018-03-22T19:33:07.650Z,100332.33
2018-03-22T19:35:38.001Z,100331.01
2018-03-22T19:38:08.038Z,100328.83
2018-03-22T19:40:38.969Z,100331.00
2018-03-22T19:43:09.300Z,100325.78
2018-03-22T19:45:39.416Z,100327.97
2018-03-22T19:48:10.003Z,100327.09
2018-03-22T19:50:41.151Z,100322.73
2018-03-22T19:53:11.240Z,100320.11
2018-03-22T19:58:42.985Z,100319.66
2018-03-22T20:04:10.962Z,100327.52
2018-03-22T20:14:16.266Z,100320.56
2018-03-22T20:17:13.344Z,100314.00
2018-03-22T20:32:18.350Z,100309.62
2018-03-22T20:34:52.307Z,100309.62
2018-03-22T20:37:29.540Z,100312.23
2018-03-22T20:40:29.858Z,100306.16
2018-03-22T20:43:01.337Z,100311.40
2018-03-22T20:45:29.778Z,100306.59
2018-03-22T20:47:59.042Z,100304.44
2018-03-22T20:50:28.192Z,100299.62
2018-03-22T20:52:56.504Z,100296.58
2018-03-22T20:55:24.889Z,100299.64
2018-03-22T20:58:06.720Z,100301.82
2018-03-22T21:00:35.104Z,100304.44
2018-03-22T21:03:03.505Z,100305.75
2018-03-22T21:05:32.677Z,100295.32
2018-03-22T21:08:01.043Z,100293.58
2018-03-22T21:10:29.429Z,100295.73
2018-03-22T21:12:57.764Z,100296.58
2018-03-22T21:15:26.287Z,100297.03
2018-03-22T21:17:54.926Z,100298.36
2018-03-22T21:20:25.191Z,100297.47
2018-03-22T21:22:56.609Z,100296.16
2018-03-22T21:25:25.751Z,100300.09
2018-03-22T21:27:57.053Z,100298.80
2018-03-22T21:30:26.665Z,100286.12
2018-03-22T21:32:56.852Z,100296.65
2018-03-22T21:35:27.677Z,100298.37
2018-03-22T21:37:57.805Z,100302.28
2018-03-22T21:40:28.584Z,100281.37
2018-03-22T21:42:58.575Z,100296.61
2018-03-22T21:45:29.257Z,100300.12
2018-03-22T21:47:59.179Z,100294.00
2018-03-22T21:50:50.718Z,100289.20
2018-03-22T21:53:19.053Z,100299.24
2018-03-22T21:55:48.193Z,100290.09
2018-03-22T21:58:16.546Z,100292.27
2018-03-22T22:00:44.891Z,100284.41
2018-03-22T22:03:13.996Z,100290.06
2018-03-22T22:05:42.405Z,100282.24
2018-03-22T22:08:10.735Z,100280.91
2018-03-22T22:10:39.855Z,100280.93
2018-03-22T22:13:08.207Z,100283.98
2018-03-22T22:15:36.585Z,100280.07
2018-03-22T22:18:06.591Z,100283.14
2018-03-22T22:20:35.023Z,100281.37
2018-03-22T22:23:04.759Z,100283.55
2018-03-22T22:25:35.746Z,100269.17
2018-03-22T22:28:05.517Z,100268.76
2018-03-22T22:30:36.697Z,100262.64
2018-03-22T22:33:06.591Z,100257.40
2018-03-22T22:35:36.567Z,100251.30
2018-03-22T22:38:07.461Z,100247.80
2018-03-22T22:40:37.547Z,100249.97
2018-03-22T22:43:08.765Z,100246.48
2018-03-22T22:45:38.496Z,100245.20
2018-03-22T22:48:08.543Z,100247.39
2018-03-22T22:50:39.580Z,100248.26
2018-03-22T22:53:09.501Z,100244.33
2018-03-22T22:55:40.814Z,100244.33
2018-03-22T22:58:10.733Z,100241.28
2018-03-22T23:00:40.567Z,100240.41
2018-03-22T23:03:11.406Z,100242.61
2018-03-22T23:05:41.013Z,100236.05
2018-03-22T23:08:12.909Z,100229.95
2018-03-22T23:10:42.546Z,100237.37
2018-03-22T23:13:12.550Z,100236.92
2018-03-22T23:15:43.616Z,100244.34
2018-03-22T23:18:13.627Z,100237.80
2018-03-22T23:20:51.920Z,100237.83
2018-03-22T23:23:20.274Z,100225.62
2018-03-22T23:25:48.619Z,100222.55
2018-03-22T23:28:16.965Z,100212.08
2018-03-22T23:30:45.906Z,100209.89
2018-03-22T23:33:16.762Z,100207.72
2018-03-22T23:35:46.616Z,100213.81
2018-03-22T23:38:16.486Z,100209.90
2018-03-22T23:40:47.556Z,100205.11
2018-03-22T23:43:17.477Z,100206.84
2018-03-22T23:45:48.710Z,100203.36
2018-03-22T23:48:18.444Z,100208.16
2018-03-22T23:50:47.904Z,100210.31
2018-03-22T23:53:19.804Z,100201.17
2018-03-22T23:55:49.520Z,100202.05
2018-03-22T23:58:20.696Z,100205.55
